sensor_id;sensor_type;location;lat;lon;timestamp;pressure;altitude;pressure_sealevel;temperature;humidity
6198;BME280;3132;42.622;23.328;2023-02-19T00:01:32;93061.38;;;5.63;73.46
6198;BME280;3132;42.622;23.328;2023-02-19T00:04:03;93058.59;;;5.48;74.20
6198;BME280;3132;42.622;23.328;2023-02-19T00:06:31;93063.59;;;5.54;74.27
6198;BME280;3132;42.622;23.328;2023-02-19T00:08:57;93060.34;;;5.64;73.01
6198;BME280;3132;42.622;23.328;2023-02-19T00:11:25;93060.19;;;5.70;72.37
6198;BME280;3132;42.622;23.328;2023-02-19T00:13:52;93059.34;;;5.65;72.81
6198;BME280;3132;42.622;23.328;2023-02-19T00:16:21;93063.91;;;5.58;72.69
6198;BME280;3132;42.622;23.328;2023-02-19T00:18:47;93066.66;;;5.68;72.15
6198;BME280;3132;42.622;23.328;2023-02-19T00:21:13;93052.75;;;6.12;70.17
6198;BME280;3132;42.622;23.328;2023-02-19T00:23:39;93038.53;;;5.93;70.89
6198;BME280;3132;42.622;23.328;2023-02-19T00:26:09;93054.56;;;5.90;71.89
6198;BME280;3132;42.622;23.328;2023-02-19T00:28:36;93053.06;;;5.77;72.53
6198;BME280;3132;42.622;23.328;2023-02-19T00:33:35;93038.16;;;5.51;74.10
6198;BME280;3132;42.622;23.328;2023-02-19T00:36:02;93029.63;;;5.34;75.15
6198;BME280;3132;42.622;23.328;2023-02-19T00:38:28;93037.78;;;5.43;74.09
6198;BME280;3132;42.622;23.328;2023-02-19T00:40:53;93025.84;;;5.42;73.92
6198;BME280;3132;42.622;23.328;2023-02-19T00:43:19;93028.31;;;5.32;74.14
6198;BME280;3132;42.622;23.328;2023-02-19T00:45:44;93026.25;;;5.50;74.25
6198;BME280;3132;42.622;23.328;2023-02-19T00:48:10;93046.78;;;5.40;74.63
6198;BME280;3132;42.622;23.328;2023-02-19T00:50:35;93021.25;;;5.27;73.63
6198;BME280;3132;42.622;23.328;2023-02-19T00:53:00;93026.72;;;5.47;73.21
6198;BME280;3132;42.622;23.328;2023-02-19T00:55:26;93026.41;;;5.44;73.67
6198;BME280;3132;42.622;23.328;2023-02-19T00:57:51;93020.91;;;5.40;73.73
6198;BME280;3132;42.622;23.328;2023-02-19T01:00:17;93005.72;;;5.27;74.25
6198;BME280;3132;42.622;23.328;2023-02-19T01:02:42;93011.81;;;5.38;74.29
6198;BME280;3132;42.622;23.328;2023-02-19T01:05:07;93026.28;;;5.34;75.11
6198;BME280;3132;42.622;23.328;2023-02-19T01:07:35;93023.25;;;5.42;74.12
6198;BME280;3132;42.622;23.328;2023-02-19T01:10:00;93013.34;;;5.72;72.60
6198;BME280;3132;42.622;23.328;2023-02-19T01:12:26;92998.59;;;5.56;73.54
6198;BME280;3132;42.622;23.328;2023-02-19T01:14:53;93004.19;;;5.64;73.15
6198;BME280;3132;42.622;23.328;2023-02-19T01:17:19;93009.16;;;5.49;74.17
6198;BME280;3132;42.622;23.328;2023-02-19T01:19:45;93000.25;;;5.62;74.25
6198;BME280;3132;42.622;23.328;2023-02-19T01:22:11;92992.50;;;5.45;73.58
6198;BME280;3132;42.622;23.328;2023-02-19T01:24:36;92989.75;;;5.52;72.85
6198;BME280;3132;42.622;23.328;2023-02-19T01:27:02;92975.53;;;5.71;72.21
6198;BME280;3132;42.622;23.328;2023-02-19T01:29:27;92992.44;;;5.57;72.71
6198;BME280;3132;42.622;23.328;2023-02-19T01:31:52;93011.03;;;5.54;71.99
6198;BME280;3132;42.622;23.328;2023-02-19T01:34:18;93014.00;;;5.46;73.38
6198;BME280;3132;42.622;23.328;2023-02-19T01:36:43;93023.13;;;5.32;73.15
6198;BME280;3132;42.622;23.328;2023-02-19T01:39:09;93048.69;;;5.45;72.62
6198;BME280;3132;42.622;23.328;2023-02-19T01:41:37;93056.06;;;5.36;72.77
6198;BME280;3132;42.622;23.328;2023-02-19T01:46:40;93045.47;;;5.38;72.96
6198;BME280;3132;42.622;23.328;2023-02-19T01:49:12;93062.66;;;5.27;73.35
6198;BME280;3132;42.622;23.328;2023-02-19T01:51:43;93065.78;;;5.46;71.75
6198;BME280;3132;42.622;23.328;2023-02-19T01:54:11;93053.78;;;5.40;72.07
6198;BME280;3132;42.622;23.328;2023-02-19T01:56:39;93069.06;;;5.25;73.16
6198;BME280;3132;42.622;23.328;2023-02-19T01:59:07;93089.88;;;5.30;72.52
6198;BME280;3132;42.622;23.328;2023-02-19T02:01:33;93076.53;;;5.38;72.08
6198;BME280;3132;42.622;23.328;2023-02-19T02:03:59;93072.69;;;5.24;73.41
6198;BME280;3132;42.622;23.328;2023-02-19T02:06:29;93053.22;;;5.05;73.73
6198;BME280;3132;42.622;23.328;2023-02-19T02:08:56;93039.75;;;5.19;73.92
6198;BME280;3132;42.622;23.328;2023-02-19T02:11:49;93034.25;;;5.16;74.13
6198;BME280;3132;42.622;23.328;2023-02-19T02:14:20;93022.72;;;5.23;73.56
6198;BME280;3132;42.622;23.328;2023-02-19T02:16:56;93031.91;;;5.31;73.28
6198;BME280;3132;42.622;23.328;2023-02-19T02:19:36;93032.81;;;5.58;72.30
6198;BME280;3132;42.622;23.328;2023-02-19T02:22:21;93035.69;;;5.40;72.87
6198;BME280;3132;42.622;23.328;2023-02-19T02:32:59;93040.69;;;5.13;74.42
6198;BME280;3132;42.622;23.328;2023-02-19T02:35:34;93048.84;;;5.05;74.84
6198;BME280;3132;42.622;23.328;2023-02-19T02:38:06;93041.00;;;5.17;73.64
6198;BME280;3132;42.622;23.328;2023-02-19T02:40:34;93065.34;;;5.32;73.33
6198;BME280;3132;42.622;23.328;2023-02-19T02:43:00;93046.41;;;5.32;73.59
6198;BME280;3132;42.622;23.328;2023-02-19T02:45:30;93062.19;;;5.47;72.70
6198;BME280;3132;42.622;23.328;2023-02-19T02:53:26;93065.06;;;5.17;74.12
6198;BME280;3132;42.622;23.328;2023-02-19T02:56:13;93015.63;;;5.14;73.17
6198;BME280;3132;42.622;23.328;2023-02-19T02:58:41;93045.00;;;5.24;73.05
6198;BME280;3132;42.622;23.328;2023-02-19T03:01:16;93006.81;;;5.15;73.33
6198;BME280;3132;42.622;23.328;2023-02-19T03:04:11;93027.19;;;5.28;73.28
6198;BME280;3132;42.622;23.328;2023-02-19T03:06:39;93036.44;;;5.40;72.48
6198;BME280;3132;42.622;23.328;2023-02-19T03:09:10;93052.34;;;5.65;71.02
6198;BME280;3132;42.622;23.328;2023-02-19T03:11:39;93054.22;;;5.70;70.63
6198;BME280;3132;42.622;23.328;2023-02-19T03:14:50;93061.47;;;5.68;70.79
6198;BME280;3132;42.622;23.328;2023-02-19T03:17:50;93051.66;;;5.53;71.30
6198;BME280;3132;42.622;23.328;2023-02-19T03:20:38;93058.97;;;5.56;71.56
6198;BME280;3132;42.622;23.328;2023-02-19T03:23:06;93060.59;;;5.79;69.64
6198;BME280;3132;42.622;23.328;2023-02-19T03:25:35;93075.56;;;5.77;70.17
6198;BME280;3132;42.622;23.328;2023-02-19T03:28:22;93093.06;;;5.70;70.72
6198;BME280;3132;42.622;23.328;2023-02-19T03:31:15;93057.94;;;5.57;69.71
6198;BME280;3132;42.622;23.328;2023-02-19T03:33:44;93104.88;;;5.77;70.11
6198;BME280;3132;42.622;23.328;2023-02-19T03:36:12;93103.63;;;5.63;70.61
6198;BME280;3132;42.622;23.328;2023-02-19T03:38:57;93103.06;;;5.45;71.50
6198;BME280;3132;42.622;23.328;2023-02-19T03:49:50;93101.47;;;5.27;72.21
6198;BME280;3132;42.622;23.328;2023-02-19T03:55:06;93104.78;;;5.72;70.69
6198;BME280;3132;42.622;23.328;2023-02-19T03:58:13;93102.75;;;5.58;71.87
6198;BME280;3132;42.622;23.328;2023-02-19T04:03:19;93104.94;;;5.33;72.08
6198;BME280;3132;42.622;23.328;2023-02-19T04:05:50;93100.88;;;5.37;72.49
6198;BME280;3132;42.622;23.328;2023-02-19T04:08:19;93118.91;;;5.32;72.60
6198;BME280;3132;42.622;23.328;2023-02-19T04:10:46;93124.88;;;5.32;72.56
6198;BME280;3132;42.622;23.328;2023-02-19T04:13:19;93120.22;;;5.34;72.43
6198;BME280;3132;42.622;23.328;2023-02-19T04:15:48;93125.16;;;5.36;71.95
6198;BME280;3132;42.622;23.328;2023-02-19T04:18:23;93131.47;;;5.40;72.05
6198;BME280;3132;42.622;23.328;2023-02-19T04:20:50;93128.06;;;5.23;72.53
6198;BME280;3132;42.622;23.328;2023-02-19T04:23:19;93120.13;;;5.13;72.63
6198;BME280;3132;42.622;23.328;2023-02-19T04:25:49;93113.38;;;5.12;73.00
6198;BME280;3132;42.622;23.328;2023-02-19T04:28:17;93131.50;;;5.12;73.10
6198;BME280;3132;42.622;23.328;2023-02-19T04:30:42;93133.72;;;5.20;73.17
6198;BME280;3132;42.622;23.328;2023-02-19T04:33:08;93118.88;;;5.15;72.52
6198;BME280;3132;42.622;23.328;2023-02-19T04:35:33;93138.94;;;5.08;74.05
6198;BME280;3132;42.622;23.328;2023-02-19T04:37:58;93135.38;;;4.97;74.24
6198;BME280;3132;42.622;23.328;2023-02-19T04:40:24;93118.06;;;5.43;72.05
6198;BME280;3132;42.622;23.328;2023-02-19T04:42:49;93134.41;;;5.15;73.69
6198;BME280;3132;42.622;23.328;2023-02-19T04:45:15;93129.66;;;5.12;73.17
6198;BME280;3132;42.622;23.328;2023-02-19T04:47:40;93115.63;;;4.91;74.31
6198;BME280;3132;42.622;23.328;2023-02-19T04:50:05;93115.19;;;5.11;73.04
6198;BME280;3132;42.622;23.328;2023-02-19T04:52:31;93138.69;;;5.10;73.84
6198;BME280;3132;42.622;23.328;2023-02-19T04:54:57;93143.59;;;5.23;73.13
6198;BME280;3132;42.622;23.328;2023-02-19T04:57:22;93138.22;;;5.13;73.17
6198;BME280;3132;42.622;23.328;2023-02-19T04:59:48;93143.38;;;4.96;74.38
6198;BME280;3132;42.622;23.328;2023-02-19T05:02:13;93142.72;;;4.89;74.91
6198;BME280;3132;42.622;23.328;2023-02-19T05:04:39;93137.13;;;5.09;73.90
6198;BME280;3132;42.622;23.328;2023-02-19T05:07:05;93142.84;;;6.43;69.62
6198;BME280;3132;42.622;23.328;2023-02-19T05:09:30;93136.13;;;6.42;68.69
6198;BME280;3132;42.622;23.328;2023-02-19T05:11:56;93149.22;;;6.95;68.09
6198;BME280;3132;42.622;23.328;2023-02-19T05:14:21;93153.16;;;7.51;67.15
6198;BME280;3132;42.622;23.328;2023-02-19T05:16:46;93165.03;;;8.37;62.99
6198;BME280;3132;42.622;23.328;2023-02-19T05:19:12;93144.38;;;8.72;60.56
6198;BME280;3132;42.622;23.328;2023-02-19T05:21:37;93159.09;;;9.03;60.68
6198;BME280;3132;42.622;23.328;2023-02-19T05:24:06;93147.19;;;9.22;60.43
6198;BME280;3132;42.622;23.328;2023-02-19T05:26:32;93178.22;;;9.33;60.01
6198;BME280;3132;42.622;23.328;2023-02-19T05:28:58;93166.00;;;9.44;59.67
6198;BME280;3132;42.622;23.328;2023-02-19T05:31:24;93168.09;;;9.52;58.69
6198;BME280;3132;42.622;23.328;2023-02-19T05:33:49;93160.78;;;9.49;58.36
6198;BME280;3132;42.622;23.328;2023-02-19T05:36:20;93166.50;;;9.41;58.63
6198;BME280;3132;42.622;23.328;2023-02-19T05:38:45;93174.34;;;9.51;58.47
6198;BME280;3132;42.622;23.328;2023-02-19T05:41:14;93186.88;;;9.49;57.95
6198;BME280;3132;42.622;23.328;2023-02-19T05:43:41;93198.84;;;9.50;58.31
6198;BME280;3132;42.622;23.328;2023-02-19T05:46:07;93192.00;;;9.34;58.65
6198;BME280;3132;42.622;23.328;2023-02-19T05:48:33;93176.13;;;9.40;59.17
6198;BME280;3132;42.622;23.328;2023-02-19T05:51:20;93180.53;;;9.25;59.96
6198;BME280;3132;42.622;23.328;2023-02-19T05:53:46;93170.16;;;9.45;58.57
6198;BME280;3132;42.622;23.328;2023-02-19T05:56:34;93184.00;;;9.50;59.06
6198;BME280;3132;42.622;23.328;2023-02-19T05:59:05;93200.69;;;9.59;58.21
6198;BME280;3132;42.622;23.328;2023-02-19T06:01:32;93180.88;;;9.68;57.65
6198;BME280;3132;42.622;23.328;2023-02-19T06:03:58;93209.34;;;9.80;58.00
6198;BME280;3132;42.622;23.328;2023-02-19T06:06:24;93199.44;;;9.97;56.77
6198;BME280;3132;42.622;23.328;2023-02-19T06:08:50;93195.50;;;9.79;57.63
6198;BME280;3132;42.622;23.328;2023-02-19T06:11:16;93209.06;;;9.71;57.68
6198;BME280;3132;42.622;23.328;2023-02-19T06:13:41;93214.25;;;9.56;58.25
6198;BME280;3132;42.622;23.328;2023-02-19T06:16:07;93220.44;;;9.40;58.49
6198;BME280;3132;42.622;23.328;2023-02-19T06:18:33;93220.25;;;9.57;58.33
6198;BME280;3132;42.622;23.328;2023-02-19T06:21:07;93217.66;;;9.72;57.79
6198;BME280;3132;42.622;23.328;2023-02-19T06:23:33;93219.25;;;9.78;57.90
6198;BME280;3132;42.622;23.328;2023-02-19T06:26:10;93228.06;;;9.67;58.66
6198;BME280;3132;42.622;23.328;2023-02-19T06:28:36;93229.09;;;9.56;58.70
6198;BME280;3132;42.622;23.328;2023-02-19T06:31:02;93213.22;;;9.62;57.99
6198;BME280;3132;42.622;23.328;2023-02-19T06:33:28;93225.00;;;9.80;57.74
6198;BME280;3132;42.622;23.328;2023-02-19T06:35:56;93227.06;;;9.78;58.15
6198;BME280;3132;42.622;23.328;2023-02-19T06:38:22;93229.94;;;9.76;58.11
6198;BME280;3132;42.622;23.328;2023-02-19T06:40:47;93227.81;;;9.68;58.41
6198;BME280;3132;42.622;23.328;2023-02-19T06:43:13;93223.13;;;9.55;58.88
6198;BME280;3132;42.622;23.328;2023-02-19T06:45:38;93220.78;;;9.64;58.30
6198;BME280;3132;42.622;23.328;2023-02-19T06:48:04;93211.41;;;9.63;58.46
6198;BME280;3132;42.622;23.328;2023-02-19T06:50:29;93230.16;;;9.65;58.39
6198;BME280;3132;42.622;23.328;2023-02-19T06:52:55;93219.00;;;9.90;57.65
6198;BME280;3132;42.622;23.328;2023-02-19T06:55:20;93229.13;;;9.66;58.47
6198;BME280;3132;42.622;23.328;2023-02-19T06:57:45;93228.66;;;9.94;57.98
6198;BME280;3132;42.622;23.328;2023-02-19T07:00:11;93232.81;;;9.90;58.01
6198;BME280;3132;42.622;23.328;2023-02-19T07:02:37;93228.94;;;9.98;57.77
6198;BME280;3132;42.622;23.328;2023-02-19T07:05:02;93235.41;;;9.90;57.67
6198;BME280;3132;42.622;23.328;2023-02-19T07:07:27;93217.16;;;9.75;58.09
6198;BME280;3132;42.622;23.328;2023-02-19T07:09:53;93246.09;;;9.89;58.21
6198;BME280;3132;42.622;23.328;2023-02-19T07:12:18;93236.69;;;9.77;58.75
6198;BME280;3132;42.622;23.328;2023-02-19T07:14:43;93245.06;;;9.79;58.43
6198;BME280;3132;42.622;23.328;2023-02-19T07:17:09;93237.47;;;9.73;58.85
6198;BME280;3132;42.622;23.328;2023-02-19T07:19:34;93235.63;;;9.63;59.56
6198;BME280;3132;42.622;23.328;2023-02-19T07:22:00;93232.03;;;9.85;58.66
6198;BME280;3132;42.622;23.328;2023-02-19T07:24:25;93229.94;;;9.76;58.68
6198;BME280;3132;42.622;23.328;2023-02-19T07:26:50;93208.00;;;9.77;58.79
6198;BME280;3132;42.622;23.328;2023-02-19T07:29:16;93176.16;;;9.45;59.13
6198;BME280;3132;42.622;23.328;2023-02-19T07:31:41;93224.69;;;9.66;59.42
6198;BME280;3132;42.622;23.328;2023-02-19T07:34:07;93213.50;;;9.76;58.18
6198;BME280;3132;42.622;23.328;2023-02-19T07:36:32;93220.28;;;9.72;58.77
6198;BME280;3132;42.622;23.328;2023-02-19T07:38:58;93214.53;;;9.75;58.47
6198;BME280;3132;42.622;23.328;2023-02-19T07:41:24;93210.97;;;10.11;57.16
6198;BME280;3132;42.622;23.328;2023-02-19T07:43:52;93216.13;;;10.01;57.27
6198;BME280;3132;42.622;23.328;2023-02-19T07:46:18;93197.34;;;9.84;56.82
6198;BME280;3132;42.622;23.328;2023-02-19T07:48:43;93194.00;;;10.14;56.00
6198;BME280;3132;42.622;23.328;2023-02-19T07:51:15;93209.94;;;10.27;56.30
6198;BME280;3132;42.622;23.328;2023-02-19T07:53:43;93211.50;;;10.28;56.14
6198;BME280;3132;42.622;23.328;2023-02-19T07:56:12;93194.28;;;10.27;56.05
6198;BME280;3132;42.622;23.328;2023-02-19T07:58:38;93218.25;;;10.49;55.55
6198;BME280;3132;42.622;23.328;2023-02-19T08:01:18;93204.63;;;10.77;54.26
6198;BME280;3132;42.622;23.328;2023-02-19T08:04:04;93217.19;;;10.60;55.73
6198;BME280;3132;42.622;23.328;2023-02-19T08:06:30;93155.09;;;10.47;56.22
6198;BME280;3132;42.622;23.328;2023-02-19T08:08:55;93203.00;;;11.06;55.64
6198;BME280;3132;42.622;23.328;2023-02-19T08:11:22;93156.72;;;11.17;53.86
6198;BME280;3132;42.622;23.328;2023-02-19T08:14:06;93209.34;;;11.49;56.21
6198;BME280;3132;42.622;23.328;2023-02-19T08:16:31;93198.13;;;11.49;55.11
6198;BME280;3132;42.622;23.328;2023-02-19T08:18:56;93200.53;;;11.89;54.06
6198;BME280;3132;42.622;23.328;2023-02-19T08:21:22;93207.31;;;11.90;52.64
6198;BME280;3132;42.622;23.328;2023-02-19T08:23:48;93216.78;;;11.86;51.39
6198;BME280;3132;42.622;23.328;2023-02-19T08:26:14;93210.94;;;11.50;52.41
6198;BME280;3132;42.622;23.328;2023-02-19T08:28:39;93198.06;;;11.64;52.13
6198;BME280;3132;42.622;23.328;2023-02-19T08:31:06;93215.75;;;11.77;52.88
6198;BME280;3132;42.622;23.328;2023-02-19T08:33:33;93185.78;;;12.03;52.51
6198;BME280;3132;42.622;23.328;2023-02-19T08:36:03;93196.72;;;12.10;52.44
6198;BME280;3132;42.622;23.328;2023-02-19T08:38:30;93192.69;;;12.22;52.22
6198;BME280;3132;42.622;23.328;2023-02-19T08:40:56;93185.06;;;12.31;52.65
6198;BME280;3132;42.622;23.328;2023-02-19T08:43:22;93186.56;;;12.37;52.46
6198;BME280;3132;42.622;23.328;2023-02-19T08:45:47;93175.56;;;12.40;51.85
6198;BME280;3132;42.622;23.328;2023-02-19T08:48:13;93178.25;;;12.58;52.27
6198;BME280;3132;42.622;23.328;2023-02-19T08:50:38;93188.06;;;12.48;50.86
6198;BME280;3132;42.622;23.328;2023-02-19T08:53:05;93194.13;;;12.43;50.39
6198;BME280;3132;42.622;23.328;2023-02-19T08:55:31;93191.16;;;12.50;50.12
6198;BME280;3132;42.622;23.328;2023-02-19T08:57:57;93178.25;;;12.30;51.25
6198;BME280;3132;42.622;23.328;2023-02-19T09:00:22;93180.41;;;12.23;51.80
6198;BME280;3132;42.622;23.328;2023-02-19T09:02:48;93147.78;;;12.10;52.38
6198;BME280;3132;42.622;23.328;2023-02-19T09:05:14;93173.53;;;12.32;51.76
6198;BME280;3132;42.622;23.328;2023-02-19T09:07:40;93164.53;;;12.43;51.41
6198;BME280;3132;42.622;23.328;2023-02-19T09:10:06;93171.84;;;12.41;50.31
6198;BME280;3132;42.622;23.328;2023-02-19T09:12:33;93173.66;;;12.45;50.29
6198;BME280;3132;42.622;23.328;2023-02-19T09:14:59;93173.94;;;12.44;51.18
6198;BME280;3132;42.622;23.328;2023-02-19T09:17:25;93169.06;;;12.61;50.72
6198;BME280;3132;42.622;23.328;2023-02-19T09:19:50;93167.34;;;12.75;50.57
6198;BME280;3132;42.622;23.328;2023-02-19T09:22:15;93157.41;;;12.72;50.36
6198;BME280;3132;42.622;23.328;2023-02-19T09:24:42;93160.78;;;13.25;48.84
6198;BME280;3132;42.622;23.328;2023-02-19T09:27:07;93144.97;;;13.11;49.88
6198;BME280;3132;42.622;23.328;2023-02-19T09:29:34;93148.97;;;13.27;49.03
6198;BME280;3132;42.622;23.328;2023-02-19T09:31:59;93155.44;;;13.11;50.48
6198;BME280;3132;42.622;23.328;2023-02-19T09:34:26;93153.69;;;13.07;50.05
6198;BME280;3132;42.622;23.328;2023-02-19T09:36:52;93154.00;;;13.00;50.44
6198;BME280;3132;42.622;23.328;2023-02-19T09:39:19;93152.88;;;13.06;50.08
6198;BME280;3132;42.622;23.328;2023-02-19T09:41:53;93163.25;;;13.16;49.07
6198;BME280;3132;42.622;23.328;2023-02-19T09:44:31;93154.06;;;13.37;48.49
6198;BME280;3132;42.622;23.328;2023-02-19T09:46:59;93148.44;;;13.07;49.44
6198;BME280;3132;42.622;23.328;2023-02-19T09:49:30;93158.78;;;12.93;49.28
6198;BME280;3132;42.622;23.328;2023-02-19T09:54:27;93149.59;;;13.19;47.78
6198;BME280;3132;42.622;23.328;2023-02-19T09:56:55;93146.22;;;13.56;46.61
6198;BME280;3132;42.622;23.328;2023-02-19T09:59:27;93132.47;;;13.45;46.74
6198;BME280;3132;42.622;23.328;2023-02-19T10:02:17;93125.75;;;13.58;46.61
6198;BME280;3132;42.622;23.328;2023-02-19T10:04:44;93132.94;;;14.03;45.47
6198;BME280;3132;42.622;23.328;2023-02-19T10:07:12;93125.84;;;14.03;46.11
6198;BME280;3132;42.622;23.328;2023-02-19T10:09:38;93118.72;;;13.72;46.14
6198;BME280;3132;42.622;23.328;2023-02-19T10:12:12;93113.41;;;13.77;45.23
6198;BME280;3132;42.622;23.328;2023-02-19T10:14:46;93100.72;;;14.16;44.94
6198;BME280;3132;42.622;23.328;2023-02-19T10:17:21;93097.78;;;13.85;45.96
6198;BME280;3132;42.622;23.328;2023-02-19T10:19:48;93087.13;;;13.95;46.07
6198;BME280;3132;42.622;23.328;2023-02-19T10:22:14;93088.34;;;13.84;46.21
6198;BME280;3132;42.622;23.328;2023-02-19T10:24:41;93089.69;;;14.00;45.71
6198;BME280;3132;42.622;23.328;2023-02-19T10:27:12;93086.00;;;14.15;45.75
6198;BME280;3132;42.622;23.328;2023-02-19T10:29:37;93086.59;;;14.44;44.53
6198;BME280;3132;42.622;23.328;2023-02-19T10:34:42;93077.53;;;13.72;46.35
6198;BME280;3132;42.622;23.328;2023-02-19T10:37:14;93075.81;;;13.81;46.23
6198;BME280;3132;42.622;23.328;2023-02-19T10:39:48;93070.50;;;14.00;45.72
6198;BME280;3132;42.622;23.328;2023-02-19T10:42:20;93059.72;;;14.01;45.93
6198;BME280;3132;42.622;23.328;2023-02-19T10:44:50;93048.41;;;13.87;44.74
6198;BME280;3132;42.622;23.328;2023-02-19T10:47:20;93057.81;;;14.07;45.20
6198;BME280;3132;42.622;23.328;2023-02-19T10:49:48;93042.56;;;14.22;44.92
6198;BME280;3132;42.622;23.328;2023-02-19T10:52:19;93043.91;;;14.66;43.98
6198;BME280;3132;42.622;23.328;2023-02-19T10:54:49;93047.56;;;14.24;45.32
6198;BME280;3132;42.622;23.328;2023-02-19T10:59:51;93029.38;;;14.68;43.84
6198;BME280;3132;42.622;23.328;2023-02-19T11:02:19;93024.78;;;14.87;43.67
6198;BME280;3132;42.622;23.328;2023-02-19T11:07:45;93016.63;;;14.75;44.02
6198;BME280;3132;42.622;23.328;2023-02-19T11:10:35;93007.50;;;14.59;43.83
6198;BME280;3132;42.622;23.328;2023-02-19T11:13:03;93004.56;;;14.88;43.38
6198;BME280;3132;42.622;23.328;2023-02-19T11:15:34;93005.72;;;14.82;43.07
6198;BME280;3132;42.622;23.328;2023-02-19T11:18:07;93005.72;;;14.82;43.00
6198;BME280;3132;42.622;23.328;2023-02-19T11:20:51;92994.50;;;14.90;42.87
6198;BME280;3132;42.622;23.328;2023-02-19T11:23:23;92989.81;;;15.00;43.10
6198;BME280;3132;42.622;23.328;2023-02-19T11:25:50;92995.16;;;15.09;42.62
6198;BME280;3132;42.622;23.328;2023-02-19T11:28:39;92993.50;;;15.13;42.12
6198;BME280;3132;42.622;23.328;2023-02-19T11:31:26;92987.06;;;15.05;42.57
6198;BME280;3132;42.622;23.328;2023-02-19T11:36:46;92977.84;;;14.94;42.93
6198;BME280;3132;42.622;23.328;2023-02-19T11:41:59;92965.97;;;14.97;43.56
6198;BME280;3132;42.622;23.328;2023-02-19T11:53:25;92948.06;;;14.85;43.69
6198;BME280;3132;42.622;23.328;2023-02-19T11:56:18;92953.81;;;15.23;42.79
6198;BME280;3132;42.622;23.328;2023-02-19T11:59:04;92952.88;;;15.05;42.00
6198;BME280;3132;42.622;23.328;2023-02-19T12:12:56;92927.53;;;14.87;43.67
6198;BME280;3132;42.622;23.328;2023-02-19T12:15:32;92921.97;;;14.89;42.29
6198;BME280;3132;42.622;23.328;2023-02-19T12:21:02;92915.06;;;15.15;41.81
6198;BME280;3132;42.622;23.328;2023-02-19T12:23:50;92908.38;;;15.31;41.16
6198;BME280;3132;42.622;23.328;2023-02-19T12:29:20;92892.66;;;15.39;41.00
6198;BME280;3132;42.622;23.328;2023-02-19T12:32:17;92892.66;;;15.39;41.40
6198;BME280;3132;42.622;23.328;2023-02-19T12:45:21;92867.59;;;15.20;42.35
6198;BME280;3132;42.622;23.328;2023-02-19T12:48:08;92855.75;;;15.31;41.15
6198;BME280;3132;42.622;23.328;2023-02-19T12:50:36;92855.19;;;15.64;40.17
6198;BME280;3132;42.622;23.328;2023-02-19T12:55:51;92850.13;;;15.46;39.86
6198;BME280;3132;42.622;23.328;2023-02-19T12:59:03;92840.97;;;15.74;39.57
6198;BME280;3132;42.622;23.328;2023-02-19T13:01:34;92831.81;;;15.63;40.05
6198;BME280;3132;42.622;23.328;2023-02-19T13:04:26;92828.44;;;15.71;39.48
6198;BME280;3132;42.622;23.328;2023-02-19T13:07:23;92824.59;;;15.77;39.47
6198;BME280;3132;42.622;23.328;2023-02-19T13:09:50;92827.16;;;15.60;40.28
6198;BME280;3132;42.622;23.328;2023-02-19T13:12:25;92798.69;;;15.31;40.55
6198;BME280;3132;42.622;23.328;2023-02-19T13:15:02;92818.34;;;15.64;39.75
6198;BME280;3132;42.622;23.328;2023-02-19T13:17:36;92815.75;;;15.73;39.39
6198;BME280;3132;42.622;23.328;2023-02-19T13:20:27;92810.75;;;15.63;39.55
6198;BME280;3132;42.622;23.328;2023-02-19T13:28:39;92799.47;;;15.71;39.20
6198;BME280;3132;42.622;23.328;2023-02-19T13:31:32;92792.84;;;15.82;39.22
6198;BME280;3132;42.622;23.328;2023-02-19T13:37:04;92781.78;;;15.63;39.79
6198;BME280;3132;42.622;23.328;2023-02-19T13:39:30;92785.03;;;15.60;40.12
6198;BME280;3132;42.622;23.328;2023-02-19T13:41:57;92784.44;;;15.63;40.26
6198;BME280;3132;42.622;23.328;2023-02-19T13:44:27;92775.19;;;15.74;39.86
6198;BME280;3132;42.622;23.328;2023-02-19T13:46:54;92775.53;;;15.81;39.31
6198;BME280;3132;42.622;23.328;2023-02-19T13:51:54;92769.25;;;15.60;39.55
6198;BME280;3132;42.622;23.328;2023-02-19T13:54:30;92762.59;;;15.32;40.16
6198;BME280;3132;42.622;23.328;2023-02-19T13:59:43;92763.34;;;15.24;40.40
6198;BME280;3132;42.622;23.328;2023-02-19T14:02:24;92773.66;;;15.12;40.50
6198;BME280;3132;42.622;23.328;2023-02-19T14:04:56;92748.84;;;14.96;41.30
6198;BME280;3132;42.622;23.328;2023-02-19T14:09:53;92762.38;;;15.42;39.87
6198;BME280;3132;42.622;23.328;2023-02-19T14:12:21;92757.00;;;15.55;39.20
6198;BME280;3132;42.622;23.328;2023-02-19T14:14:48;92764.47;;;15.70;38.85
6198;BME280;3132;42.622;23.328;2023-02-19T14:28:17;92733.97;;;15.61;39.38
6198;BME280;3132;42.622;23.328;2023-02-19T14:33:26;92731.06;;;15.88;38.52
6198;BME280;3132;42.622;23.328;2023-02-19T14:36:31;92710.78;;;15.80;38.68
6198;BME280;3132;42.622;23.328;2023-02-19T14:41:27;92731.22;;;15.74;39.66
6198;BME280;3132;42.622;23.328;2023-02-19T14:43:55;92730.91;;;15.76;39.66
6198;BME280;3132;42.622;23.328;2023-02-19T14:46:36;92734.63;;;15.75;40.65
6198;BME280;3132;42.622;23.328;2023-02-19T14:49:18;92726.53;;;15.63;42.69
6198;BME280;3132;42.622;23.328;2023-02-19T14:51:49;92715.19;;;15.45;42.75
6198;BME280;3132;42.622;23.328;2023-02-19T14:54:20;92710.59;;;15.29;43.94
6198;BME280;3132;42.622;23.328;2023-02-19T14:56:50;92715.19;;;15.15;45.21
6198;BME280;3132;42.622;23.328;2023-02-19T14:59:20;92715.97;;;15.15;44.40
6198;BME280;3132;42.622;23.328;2023-02-19T15:01:58;92706.53;;;14.84;45.24
6198;BME280;3132;42.622;23.328;2023-02-19T15:04:33;92701.75;;;14.86;44.83
6198;BME280;3132;42.622;23.328;2023-02-19T15:07:01;92705.38;;;14.68;43.81
6198;BME280;3132;42.622;23.328;2023-02-19T15:09:30;92681.16;;;14.48;44.17
6198;BME280;3132;42.622;23.328;2023-02-19T15:11:57;92686.13;;;14.59;44.67
6198;BME280;3132;42.622;23.328;2023-02-19T15:14:24;92679.59;;;14.47;44.75
6198;BME280;3132;42.622;23.328;2023-02-19T15:16:58;92696.53;;;14.41;44.45
6198;BME280;3132;42.622;23.328;2023-02-19T15:19:25;92687.09;;;14.18;46.10
6198;BME280;3132;42.622;23.328;2023-02-19T15:21:51;92693.53;;;14.12;46.37
6198;BME280;3132;42.622;23.328;2023-02-19T15:24:19;92680.69;;;14.11;47.31
6198;BME280;3132;42.622;23.328;2023-02-19T15:26:49;92688.94;;;13.96;45.88
6198;BME280;3132;42.622;23.328;2023-02-19T15:29:21;92689.53;;;14.15;42.81
6198;BME280;3132;42.622;23.328;2023-02-19T15:31:52;92686.16;;;14.01;44.07
6198;BME280;3132;42.622;23.328;2023-02-19T15:34:21;92685.63;;;13.90;45.23